createdAt,value
2023-02-24T00:02:05.623Z,77359.34
2023-02-24T00:07:10.246Z,57965.28
2023-02-24T00:17:14.865Z,57965.28
2023-02-24T00:27:17.739Z,57965.28
2023-02-24T00:32:19.552Z,57965.28
2023-02-24T00:47:27.922Z,57965.28
2023-02-24T00:52:29.442Z,57965.28
2023-02-24T00:57:33.920Z,57965.28
2023-02-24T01:02:35.433Z,57965.28
2023-02-24T01:07:36.959Z,101002.13
2023-02-24T01:12:49.320Z,57965.28
2023-02-24T01:17:50.919Z,77359.34
2023-02-24T01:27:58.268Z,57965.28
2023-02-24T01:33:02.167Z,57965.28
2023-02-24T01:38:03.734Z,57965.28
2023-02-24T01:43:08.724Z,57965.28
2023-02-24T01:48:12.051Z,57965.28
2023-02-24T01:53:14.935Z,57965.28
2023-02-24T02:03:29.638Z,57965.28
2023-02-24T02:08:32.191Z,57965.28
2023-02-24T02:13:35.705Z,57965.28
2023-02-24T02:19:05.165Z,57965.28
2023-02-24T02:24:26.747Z,57965.28
2023-02-24T02:30:03.460Z,57965.28
2023-02-24T02:35:19.080Z,57965.28
2023-02-24T02:40:37.506Z,57965.28
2023-02-24T02:45:47.501Z,57965.28
2023-02-24T02:51:06.092Z,57965.28
2023-02-24T02:56:14.133Z,57965.28
2023-02-24T03:01:21.108Z,57965.28
2023-02-24T03:06:36.775Z,57965.28
2023-02-24T03:11:39.415Z,57965.28
2023-02-24T03:16:43.960Z,57965.28
2023-02-24T03:21:51.759Z,57965.28
2023-02-24T03:27:03.957Z,57965.28
2023-02-24T03:32:12.616Z,57965.28
2023-02-24T03:37:14.206Z,57965.28
2023-02-24T03:42:19.173Z,57965.28
2023-02-24T03:47:20.890Z,57965.28
2023-02-24T03:52:29.183Z,57965.28
2023-02-24T03:57:34.652Z,57965.28
2023-02-24T04:02:37.016Z,57965.28
2023-02-24T04:08:00.959Z,57965.28
2023-02-24T04:13:10.322Z,57965.28
2023-02-24T04:18:29.445Z,57965.28
2023-02-24T04:23:38.576Z,57965.28
2023-02-24T04:28:42.354Z,57965.28
2023-02-24T04:33:50.158Z,57965.28
2023-02-24T04:38:54.821Z,57965.28
2023-02-24T04:43:56.496Z,57965.28
2023-02-24T04:48:57.942Z,57965.28
2023-02-24T04:59:00.903Z,57965.28
2023-02-24T05:04:03.122Z,57965.28
2023-02-24T05:09:14.064Z,57965.28
2023-02-24T05:14:18.375Z,57965.28
2023-02-24T05:19:46.570Z,57965.28
2023-02-24T05:24:48.202Z,57965.28
2023-02-24T05:29:49.737Z,112849.09
2023-02-24T05:34:51.154Z,57965.28
2023-02-24T05:40:00.176Z,57965.28
2023-02-24T05:45:02.142Z,57965.28
2023-02-24T05:50:04.198Z,57965.28
2023-02-24T05:55:07.105Z,57965.28
2023-02-24T06:00:14.933Z,57965.28
2023-02-24T06:05:25.512Z,57965.28
2023-02-24T06:10:27.599Z,57965.28
2023-02-24T06:15:29.893Z,57965.28
2023-02-24T06:20:32.909Z,57965.28
2023-02-24T06:25:34.408Z,57965.28
2023-02-24T06:30:37.640Z,57965.28
2023-02-24T06:40:42.527Z,57965.28
2023-02-24T06:45:45.303Z,57965.28
2023-02-24T06:50:51.625Z,57965.28
2023-02-24T06:55:53.051Z,57965.28
2023-02-24T07:00:57.174Z,57965.28
2023-02-24T07:06:20.134Z,57965.28
2023-02-24T07:16:25.110Z,77359.72
2023-02-24T07:31:34.326Z,57965.28
2023-02-24T07:36:48.975Z,101002.13
2023-02-24T07:46:56.576Z,77359.34
2023-02-24T07:51:58.256Z,101002.13
2023-02-24T07:57:00.019Z,57965.28
2023-02-24T08:02:04.592Z,101002.13
2023-02-24T08:07:12.929Z,57965.28
2023-02-24T08:12:22.586Z,101002.13
2023-02-24T08:17:26.357Z,101002.13
2023-02-24T08:22:35.992Z,77359.34
2023-02-24T08:27:38.972Z,101002.13
2023-02-24T08:37:49.905Z,101002.13
2023-02-24T08:47:54.211Z,100474.16
2023-02-24T08:52:55.722Z,100474.16
2023-02-24T08:58:01.507Z,100474.16
2023-02-24T09:03:08.175Z,100460.53
2023-02-24T09:08:09.607Z,100440.69
2023-02-24T09:13:12.164Z,100449.03
2023-02-24T09:18:14.349Z,100444.44
2023-02-24T09:23:20.024Z,100435.00
2023-02-24T09:28:32.697Z,100428.22
2023-02-24T09:33:39.417Z,100434.81
2023-02-24T09:39:01.529Z,100427.88
2023-02-24T09:44:07.516Z,100427.47
2023-02-24T09:49:17.207Z,100416.06
2023-02-24T09:54:24.580Z,100395.88
2023-02-24T09:59:36.191Z,100397.50
2023-02-24T10:04:53.911Z,100380.84
2023-02-24T10:10:19.411Z,100380.25
2023-02-24T10:16:06.178Z,100375.06
2023-02-24T10:21:11.003Z,100373.00
2023-02-24T10:26:31.450Z,100359.16
2023-02-24T10:31:47.960Z,100341.13
2023-02-24T10:36:50.278Z,100340.91
2023-02-24T10:41:58.471Z,100340.91
2023-02-24T10:47:13.295Z,100330.22
2023-02-24T10:52:36.402Z,100323.44
2023-02-24T10:57:59.149Z,100323.44
2023-02-24T11:03:19.465Z,100323.44
2023-02-24T11:08:36.761Z,100323.44
2023-02-24T11:13:56.955Z,100296.94
2023-02-24T11:18:58.620Z,100296.94
2023-02-24T11:29:04.014Z,100287.84
2023-02-24T11:39:53.017Z,100287.84
2023-02-24T11:55:19.919Z,77020.75
2023-02-24T12:10:47.247Z,100287.84
2023-02-24T12:15:56.969Z,100287.84
2023-02-24T12:21:12.241Z,76914.69
2023-02-24T12:26:19.862Z,100173.09
2023-02-24T12:37:16.559Z,76914.69
2023-02-24T12:42:28.926Z,76914.69
2023-02-24T12:47:33.340Z,57965.28
2023-02-24T12:52:56.314Z,57965.28
2023-02-24T12:58:08.201Z,76914.69
2023-02-24T13:08:43.792Z,57965.28
2023-02-24T13:13:56.394Z,57965.28
2023-02-24T13:19:26.771Z,100173.09
2023-02-24T13:24:28.404Z,100173.09
2023-02-24T13:29:29.887Z,100173.09
2023-02-24T13:34:54.102Z,100173.09
2023-02-24T13:39:55.906Z,100173.09
2023-02-24T13:45:21.053Z,100173.09
2023-02-24T13:50:36.075Z,57965.28
2023-02-24T13:55:55.761Z,57965.28
2023-02-24T14:01:30.335Z,57965.28
2023-02-24T14:11:36.945Z,100173.09
2023-02-24T14:16:39.753Z,57965.28
2023-02-24T14:21:48.976Z,100173.09
2023-02-24T14:26:55.257Z,57965.28
2023-02-24T14:31:56.952Z,57965.28
2023-02-24T14:37:01.877Z,57965.28
2023-02-24T14:42:14.718Z,57965.28
2023-02-24T14:47:19.305Z,57965.28
2023-02-24T14:52:31.297Z,57965.28
2023-02-24T14:57:42.494Z,57965.28
2023-02-24T15:02:50.515Z,100173.09
2023-02-24T15:07:52.224Z,57965.28
2023-02-24T15:18:09.090Z,76914.69
2023-02-24T15:23:30.788Z,57965.28
2023-02-24T15:28:34.905Z,57965.28
2023-02-24T15:33:43.005Z,57965.28
2023-02-24T15:38:45.429Z,57965.28
2023-02-24T15:43:50.184Z,57965.28
2023-02-24T15:48:53.555Z,57965.28
2023-02-24T15:53:55.187Z,57965.28
2023-02-24T15:58:56.713Z,57965.28
2023-02-24T16:03:59.017Z,57965.28
2023-02-24T16:09:00.898Z,57965.28
2023-02-24T16:14:03.936Z,57965.28
2023-02-24T16:19:05.437Z,57965.28
2023-02-24T16:24:07.194Z,57965.28
2023-02-24T16:29:13.945Z,57965.28
2023-02-24T16:34:16.181Z,57965.28
2023-02-24T16:39:17.690Z,57965.28
2023-02-24T16:49:20.970Z,57965.28
2023-02-24T16:54:23.302Z,57965.28
2023-02-24T16:59:27.828Z,57965.28
2023-02-24T17:04:29.719Z,57965.28
2023-02-24T17:09:33.238Z,57965.28
2023-02-24T17:14:34.654Z,57965.28
2023-02-24T17:24:37.546Z,112849.09
2023-02-24T17:29:39.566Z,57965.28
2023-02-24T17:34:40.977Z,57965.28
2023-02-24T17:39:42.487Z,57965.28
2023-02-24T17:44:45.200Z,57965.28
2023-02-24T17:54:48.296Z,57965.28
2023-02-24T18:04:51.482Z,57965.28
2023-02-24T18:09:52.972Z,57965.28
2023-02-24T18:15:07.280Z,57965.28
2023-02-24T18:20:12.030Z,57965.28
2023-02-24T18:25:13.556Z,57965.28
2023-02-24T18:30:17.775Z,57965.28
2023-02-24T18:40:28.001Z,57965.28
2023-02-24T18:50:32.908Z,57965.28
2023-02-24T18:55:35.710Z,57965.28
2023-02-24T19:00:37.892Z,57965.28
2023-02-24T19:05:39.356Z,57965.28
2023-02-24T19:10:42.763Z,57965.28
2023-02-24T19:15:44.713Z,57965.28
2023-02-24T19:20:46.205Z,57965.28
2023-02-24T19:25:47.645Z,57965.28
2023-02-24T19:30:49.193Z,57965.28
2023-02-24T19:35:53.141Z,57965.28
2023-02-24T19:40:58.608Z,57965.28
2023-02-24T19:46:04.613Z,57965.28
2023-02-24T19:51:11.689Z,57965.28
2023-02-24T19:56:13.665Z,57965.28
2023-02-24T20:01:15.232Z,57965.28
2023-02-24T20:06:22.773Z,57965.28
2023-02-24T20:11:24.755Z,57965.28
2023-02-24T20:16:28.402Z,57965.28
2023-02-24T20:21:30.798Z,57965.28
2023-02-24T20:26:33.128Z,57965.28
2023-02-24T20:31:34.687Z,57965.28
2023-02-24T20:36:36.792Z,57965.28
2023-02-24T20:41:39.486Z,57965.28
2023-02-24T20:46:40.985Z,57965.28
2023-02-24T20:51:43.438Z,57965.28
2023-02-24T20:56:46.230Z,57965.28
2023-02-24T21:01:48.903Z,57965.28
2023-02-24T21:06:51.821Z,57965.28
2023-02-24T21:11:53.263Z,57965.28
2023-02-24T21:16:54.652Z,57965.28
2023-02-24T21:21:56.088Z,57965.28
2023-02-24T21:26:58.517Z,57965.28
2023-02-24T21:32:00.124Z,57965.28
2023-02-24T21:37:01.639Z,57965.28
2023-02-24T21:42:03.125Z,57965.28
2023-02-24T21:47:05.039Z,57965.28
2023-02-24T21:52:07.382Z,57965.28
2023-02-24T21:57:08.823Z,57965.28
2023-02-24T22:02:13.633Z,57965.28
2023-02-24T22:07:15.081Z,57965.28
2023-02-24T22:12:16.507Z,57965.28
2023-02-24T22:17:17.945Z,57965.28
2023-02-24T22:22:19.415Z,57965.28
2023-02-24T22:27:21.377Z,57965.28
2023-02-24T22:32:23.507Z,57965.28
2023-02-24T22:37:25.132Z,57965.28
2023-02-24T22:42:26.745Z,57965.28
2023-02-24T22:47:29.230Z,57965.28
2023-02-24T22:52:30.747Z,57965.28
2023-02-24T22:57:33.948Z,57965.28
2023-02-24T23:02:35.541Z,57965.28
2023-02-24T23:07:37.363Z,57965.28
2023-02-24T23:12:38.896Z,57965.28
2023-02-24T23:17:41.070Z,57965.28
2023-02-24T23:22:43.027Z,57965.28
2023-02-24T23:27:44.441Z,57965.28
2023-02-24T23:32:46.104Z,57965.28
2023-02-24T23:37:48.106Z,57965.28
2023-02-24T23:42:49.531Z,57965.28
2023-02-24T23:47:51.840Z,57965.28
2023-02-24T23:52:53.983Z,57965.28
2023-02-24T23:57:55.902Z,57965.28
